sensor_id;sensor_type;location;lat;lon;timestamp;temperature;humidity
44305;DHT22;30019;50.576;8.568;2023-03-23T00:00:45;13.30;99.90
44305;DHT22;30019;50.576;8.568;2023-03-23T00:03:10;13.30;99.90
44305;DHT22;30019;50.576;8.568;2023-03-23T00:05:38;13.30;99.90
44305;DHT22;30019;50.576;8.568;2023-03-23T00:08:06;13.30;99.90
44305;DHT22;30019;50.576;8.568;2023-03-23T00:10:35;13.20;99.90
44305;DHT22;30019;50.576;8.568;2023-03-23T00:13:00;13.10;99.90
44305;DHT22;30019;50.576;8.568;2023-03-23T00:15:30;13.00;99.90
44305;DHT22;30019;50.576;8.568;2023-03-23T00:18:00;12.80;99.90
44305;DHT22;30019;50.576;8.568;2023-03-23T00:20:30;12.80;99.90
44305;DHT22;30019;50.576;8.568;2023-03-23T00:23:23;12.80;99.90
44305;DHT22;30019;50.576;8.568;2023-03-23T00:25:54;12.80;99.90
44305;DHT22;30019;50.576;8.568;2023-03-23T00:28:25;12.80;99.90
44305;DHT22;30019;50.576;8.568;2023-03-23T00:30:59;12.90;99.90
44305;DHT22;30019;50.576;8.568;2023-03-23T00:33:30;12.70;99.90
44305;DHT22;30019;50.576;8.568;2023-03-23T00:36:04;12.40;99.90
44305;DHT22;30019;50.576;8.568;2023-03-23T00:38:31;12.10;99.90
44305;DHT22;30019;50.576;8.568;2023-03-23T00:40:56;11.90;99.90
44305;DHT22;30019;50.576;8.568;2023-03-23T00:43:23;11.70;99.90
44305;DHT22;30019;50.576;8.568;2023-03-23T00:46:04;11.50;99.90
44305;DHT22;30019;50.576;8.568;2023-03-23T01:02:49;10.70;99.90
44305;DHT22;30019;50.576;8.568;2023-03-23T04:01:09;9.70;99.90
44305;DHT22;30019;50.576;8.568;2023-03-23T04:14:51;9.70;99.90
44305;DHT22;30019;50.576;8.568;2023-03-23T04:24:16;9.80;99.90
44305;DHT22;30019;50.576;8.568;2023-03-23T04:27:26;9.90;99.90
44305;DHT22;30019;50.576;8.568;2023-03-23T04:30:06;9.80;99.90
44305;DHT22;30019;50.576;8.568;2023-03-23T04:36:09;9.90;99.90
44305;DHT22;30019;50.576;8.568;2023-03-23T04:38:48;9.90;99.90
44305;DHT22;30019;50.576;8.568;2023-03-23T04:41:20;9.90;99.90
44305;DHT22;30019;50.576;8.568;2023-03-23T04:43:46;9.80;99.90
44305;DHT22;30019;50.576;8.568;2023-03-23T04:46:20;9.70;99.90
44305;DHT22;30019;50.576;8.568;2023-03-23T04:48:48;9.70;99.90
44305;DHT22;30019;50.576;8.568;2023-03-23T04:51:17;9.70;99.90
44305;DHT22;30019;50.576;8.568;2023-03-23T04:53:43;9.70;99.90
44305;DHT22;30019;50.576;8.568;2023-03-23T04:56:09;9.70;99.90
44305;DHT22;30019;50.576;8.568;2023-03-23T04:58:35;9.60;99.90
44305;DHT22;30019;50.576;8.568;2023-03-23T05:01:01;9.60;99.90
44305;DHT22;30019;50.576;8.568;2023-03-23T05:03:27;9.60;99.90
44305;DHT22;30019;50.576;8.568;2023-03-23T05:05:53;9.60;99.90
44305;DHT22;30019;50.576;8.568;2023-03-23T05:08:23;9.60;99.90
44305;DHT22;30019;50.576;8.568;2023-03-23T05:10:57;9.60;99.90
44305;DHT22;30019;50.576;8.568;2023-03-23T05:13:31;9.60;99.90
44305;DHT22;30019;50.576;8.568;2023-03-23T05:15:56;9.60;99.90
44305;DHT22;30019;50.576;8.568;2023-03-23T05:18:22;9.60;99.90
44305;DHT22;30019;50.576;8.568;2023-03-23T05:20:48;9.60;99.90
44305;DHT22;30019;50.576;8.568;2023-03-23T05:23:18;9.60;99.90
44305;DHT22;30019;50.576;8.568;2023-03-23T05:25:54;9.60;99.90
44305;DHT22;30019;50.576;8.568;2023-03-23T05:28:19;9.60;99.90
44305;DHT22;30019;50.576;8.568;2023-03-23T05:30:47;9.60;99.90
44305;DHT22;30019;50.576;8.568;2023-03-23T05:33:13;9.70;99.90
44305;DHT22;30019;50.576;8.568;2023-03-23T05:35:39;9.70;99.90
44305;DHT22;30019;50.576;8.568;2023-03-23T05:38:13;9.70;99.90
44305;DHT22;30019;50.576;8.568;2023-03-23T05:40:40;9.70;99.90
44305;DHT22;30019;50.576;8.568;2023-03-23T05:43:19;9.70;99.90
44305;DHT22;30019;50.576;8.568;2023-03-23T05:45:46;9.70;99.90
44305;DHT22;30019;50.576;8.568;2023-03-23T05:48:12;9.70;99.90
44305;DHT22;30019;50.576;8.568;2023-03-23T05:50:37;9.70;99.90
44305;DHT22;30019;50.576;8.568;2023-03-23T05:53:03;9.70;99.90
44305;DHT22;30019;50.576;8.568;2023-03-23T05:55:31;9.70;99.90
44305;DHT22;30019;50.576;8.568;2023-03-23T05:57:58;9.70;99.90
44305;DHT22;30019;50.576;8.568;2023-03-23T06:00:30;9.80;99.90
44305;DHT22;30019;50.576;8.568;2023-03-23T06:02:56;9.90;99.90
44305;DHT22;30019;50.576;8.568;2023-03-23T06:05:22;9.90;99.90
44305;DHT22;30019;50.576;8.568;2023-03-23T06:07:49;9.80;99.90
44305;DHT22;30019;50.576;8.568;2023-03-23T06:10:14;9.90;99.90
44305;DHT22;30019;50.576;8.568;2023-03-23T06:12:40;9.90;99.90
44305;DHT22;30019;50.576;8.568;2023-03-23T06:15:08;9.90;99.90
44305;DHT22;30019;50.576;8.568;2023-03-23T06:17:34;9.90;99.90
44305;DHT22;30019;50.576;8.568;2023-03-23T06:20:02;9.90;99.90
44305;DHT22;30019;50.576;8.568;2023-03-23T06:22:29;9.90;99.90
44305;DHT22;30019;50.576;8.568;2023-03-23T06:24:55;9.90;99.90
44305;DHT22;30019;50.576;8.568;2023-03-23T06:27:22;9.90;99.90
44305;DHT22;30019;50.576;8.568;2023-03-23T06:29:48;9.90;99.90
44305;DHT22;30019;50.576;8.568;2023-03-23T06:32:14;9.90;99.90
44305;DHT22;30019;50.576;8.568;2023-03-23T06:34:40;10.00;99.90
44305;DHT22;30019;50.576;8.568;2023-03-23T06:37:09;10.00;99.90
44305;DHT22;30019;50.576;8.568;2023-03-23T06:39:34;10.00;99.90
44305;DHT22;30019;50.576;8.568;2023-03-23T06:42:01;10.00;99.90
44305;DHT22;30019;50.576;8.568;2023-03-23T06:44:26;10.10;99.90
44305;DHT22;30019;50.576;8.568;2023-03-23T06:46:52;10.20;99.90
44305;DHT22;30019;50.576;8.568;2023-03-23T06:49:18;10.20;99.90
44305;DHT22;30019;50.576;8.568;2023-03-23T06:51:43;10.20;99.90
44305;DHT22;30019;50.576;8.568;2023-03-23T06:54:15;10.20;99.90
44305;DHT22;30019;50.576;8.568;2023-03-23T06:56:40;10.20;99.90
44305;DHT22;30019;50.576;8.568;2023-03-23T06:59:06;10.20;99.90
44305;DHT22;30019;50.576;8.568;2023-03-23T07:01:35;10.20;99.90
44305;DHT22;30019;50.576;8.568;2023-03-23T07:04:02;10.20;99.90
44305;DHT22;30019;50.576;8.568;2023-03-23T07:06:27;10.20;99.90
44305;DHT22;30019;50.576;8.568;2023-03-23T07:08:59;10.20;99.90
44305;DHT22;30019;50.576;8.568;2023-03-23T07:11:37;10.30;99.90
44305;DHT22;30019;50.576;8.568;2023-03-23T07:14:29;10.30;99.90
44305;DHT22;30019;50.576;8.568;2023-03-23T07:16:55;10.20;99.90
44305;DHT22;30019;50.576;8.568;2023-03-23T07:19:45;10.20;99.90
44305;DHT22;30019;50.576;8.568;2023-03-23T07:22:29;10.20;99.90
44305;DHT22;30019;50.576;8.568;2023-03-23T07:24:55;10.30;99.90
44305;DHT22;30019;50.576;8.568;2023-03-23T07:27:47;10.30;99.90
44305;DHT22;30019;50.576;8.568;2023-03-23T07:30:16;10.40;99.90
44305;DHT22;30019;50.576;8.568;2023-03-23T07:32:42;10.60;99.90
44305;DHT22;30019;50.576;8.568;2023-03-23T07:35:19;10.70;99.90
44305;DHT22;30019;50.576;8.568;2023-03-23T07:41:32;11.00;99.90
44305;DHT22;30019;50.576;8.568;2023-03-23T07:44:18;11.10;99.90
44305;DHT22;30019;50.576;8.568;2023-03-23T07:46:43;11.20;99.90
44305;DHT22;30019;50.576;8.568;2023-03-23T07:49:09;11.30;99.90
44305;DHT22;30019;50.576;8.568;2023-03-23T07:51:35;11.30;99.90
44305;DHT22;30019;50.576;8.568;2023-03-23T07:54:06;11.40;99.90
44305;DHT22;30019;50.576;8.568;2023-03-23T07:56:36;11.40;99.90
44305;DHT22;30019;50.576;8.568;2023-03-23T07:59:03;11.40;99.90
44305;DHT22;30019;50.576;8.568;2023-03-23T08:01:30;11.50;99.90
44305;DHT22;30019;50.576;8.568;2023-03-23T08:03:56;11.60;99.90
44305;DHT22;30019;50.576;8.568;2023-03-23T08:06:23;11.60;99.90
44305;DHT22;30019;50.576;8.568;2023-03-23T08:08:49;11.60;99.90
44305;DHT22;30019;50.576;8.568;2023-03-23T08:11:16;11.60;99.90
44305;DHT22;30019;50.576;8.568;2023-03-23T08:13:42;11.60;99.90
44305;DHT22;30019;50.576;8.568;2023-03-23T08:16:09;11.50;99.90
44305;DHT22;30019;50.576;8.568;2023-03-23T08:18:35;11.50;99.90
44305;DHT22;30019;50.576;8.568;2023-03-23T08:21:02;11.60;99.90
44305;DHT22;30019;50.576;8.568;2023-03-23T08:23:30;11.60;99.90
44305;DHT22;30019;50.576;8.568;2023-03-23T08:25:58;11.70;99.90
44305;DHT22;30019;50.576;8.568;2023-03-23T08:28:24;11.70;99.90
44305;DHT22;30019;50.576;8.568;2023-03-23T08:30:50;11.80;99.90
44305;DHT22;30019;50.576;8.568;2023-03-23T08:33:16;11.90;99.90
44305;DHT22;30019;50.576;8.568;2023-03-23T08:35:42;11.90;99.90
44305;DHT22;30019;50.576;8.568;2023-03-23T08:38:09;12.00;99.90
44305;DHT22;30019;50.576;8.568;2023-03-23T08:40:35;11.90;99.90
44305;DHT22;30019;50.576;8.568;2023-03-23T08:43:01;11.90;99.90
44305;DHT22;30019;50.576;8.568;2023-03-23T08:45:27;11.90;99.90
44305;DHT22;30019;50.576;8.568;2023-03-23T08:47:53;11.80;99.90
44305;DHT22;30019;50.576;8.568;2023-03-23T08:50:24;11.90;99.90
44305;DHT22;30019;50.576;8.568;2023-03-23T08:52:50;11.90;99.90
44305;DHT22;30019;50.576;8.568;2023-03-23T08:55:16;12.00;99.90
44305;DHT22;30019;50.576;8.568;2023-03-23T08:57:43;12.10;99.90
44305;DHT22;30019;50.576;8.568;2023-03-23T09:00:12;12.20;99.90
44305;DHT22;30019;50.576;8.568;2023-03-23T09:02:46;12.30;99.90
44305;DHT22;30019;50.576;8.568;2023-03-23T09:05:14;12.40;99.90
44305;DHT22;30019;50.576;8.568;2023-03-23T09:07:41;12.40;99.90
44305;DHT22;30019;50.576;8.568;2023-03-23T09:10:08;12.40;99.90
44305;DHT22;30019;50.576;8.568;2023-03-23T09:12:35;12.50;99.90
44305;DHT22;30019;50.576;8.568;2023-03-23T09:24:12;12.50;99.90
44305;DHT22;30019;50.576;8.568;2023-03-23T09:40:03;12.60;99.90
44305;DHT22;30019;50.576;8.568;2023-03-23T09:42:44;12.60;99.90
44305;DHT22;30019;50.576;8.568;2023-03-23T09:51:17;12.60;99.90
44305;DHT22;30019;50.576;8.568;2023-03-23T09:54:04;12.50;99.90
44305;DHT22;30019;50.576;8.568;2023-03-23T09:56:33;12.30;99.90
44305;DHT22;30019;50.576;8.568;2023-03-23T10:01:50;12.20;99.90
44305;DHT22;30019;50.576;8.568;2023-03-23T10:09:40;12.20;99.90
44305;DHT22;30019;50.576;8.568;2023-03-23T10:12:19;12.10;99.90
44305;DHT22;30019;50.576;8.568;2023-03-23T10:17:35;12.00;99.90
44305;DHT22;30019;50.576;8.568;2023-03-23T10:20:53;12.00;99.90
44305;DHT22;30019;50.576;8.568;2023-03-23T10:36:00;11.90;99.90
44305;DHT22;30019;50.576;8.568;2023-03-23T10:42:27;11.80;99.90
44305;DHT22;30019;50.576;8.568;2023-03-23T10:48:33;11.90;99.90
44305;DHT22;30019;50.576;8.568;2023-03-23T10:51:12;12.00;99.90
44305;DHT22;30019;50.576;8.568;2023-03-23T10:56:56;12.40;99.90
44305;DHT22;30019;50.576;8.568;2023-03-23T10:59:30;12.60;99.90
44305;DHT22;30019;50.576;8.568;2023-03-23T11:02:00;12.60;99.90
44305;DHT22;30019;50.576;8.568;2023-03-23T11:04:41;12.60;99.90
44305;DHT22;30019;50.576;8.568;2023-03-23T11:07:20;12.50;99.90
44305;DHT22;30019;50.576;8.568;2023-03-23T14:07:08;15.30;99.90
44305;DHT22;30019;50.576;8.568;2023-03-23T14:09:40;15.30;99.90
44305;DHT22;30019;50.576;8.568;2023-03-23T14:12:27;15.40;99.90
44305;DHT22;30019;50.576;8.568;2023-03-23T14:15:01;15.30;99.90
44305;DHT22;30019;50.576;8.568;2023-03-23T14:17:39;15.40;99.90
44305;DHT22;30019;50.576;8.568;2023-03-23T14:20:06;15.50;99.90
44305;DHT22;30019;50.576;8.568;2023-03-23T14:22:36;15.60;99.90
44305;DHT22;30019;50.576;8.568;2023-03-23T14:25:14;15.50;99.90
44305;DHT22;30019;50.576;8.568;2023-03-23T14:27:40;15.40;99.90
44305;DHT22;30019;50.576;8.568;2023-03-23T14:30:23;15.20;99.90
44305;DHT22;30019;50.576;8.568;2023-03-23T14:32:51;15.20;99.90
44305;DHT22;30019;50.576;8.568;2023-03-23T14:37:53;15.10;99.90
44305;DHT22;30019;50.576;8.568;2023-03-23T14:40:19;15.20;99.90
44305;DHT22;30019;50.576;8.568;2023-03-23T14:42:45;15.00;99.90
44305;DHT22;30019;50.576;8.568;2023-03-23T14:45:15;15.00;99.90
44305;DHT22;30019;50.576;8.568;2023-03-23T14:47:50;14.90;99.90
44305;DHT22;30019;50.576;8.568;2023-03-23T14:50:28;14.90;99.90
44305;DHT22;30019;50.576;8.568;2023-03-23T14:53:01;14.80;99.90
44305;DHT22;30019;50.576;8.568;2023-03-23T14:55:30;14.70;99.90
44305;DHT22;30019;50.576;8.568;2023-03-23T14:58:06;14.60;99.90
44305;DHT22;30019;50.576;8.568;2023-03-23T15:00:55;14.70;99.90
44305;DHT22;30019;50.576;8.568;2023-03-23T15:03:25;14.90;99.90
44305;DHT22;30019;50.576;8.568;2023-03-23T15:05:58;15.60;99.90
44305;DHT22;30019;50.576;8.568;2023-03-23T15:08:30;16.10;99.90
44305;DHT22;30019;50.576;8.568;2023-03-23T15:13:49;16.20;99.90
44305;DHT22;30019;50.576;8.568;2023-03-23T15:16:27;15.70;99.90
44305;DHT22;30019;50.576;8.568;2023-03-23T15:19:04;15.50;99.90
44305;DHT22;30019;50.576;8.568;2023-03-23T15:21:33;15.30;99.90
44305;DHT22;30019;50.576;8.568;2023-03-23T15:24:17;15.30;99.90
44305;DHT22;30019;50.576;8.568;2023-03-23T15:26:44;15.20;99.90
44305;DHT22;30019;50.576;8.568;2023-03-23T15:29:19;15.10;99.90
44305;DHT22;30019;50.576;8.568;2023-03-23T15:31:52;15.10;99.90
44305;DHT22;30019;50.576;8.568;2023-03-23T15:34:33;15.00;99.90
44305;DHT22;30019;50.576;8.568;2023-03-23T15:37:13;15.00;99.90
44305;DHT22;30019;50.576;8.568;2023-03-23T15:39:42;14.80;99.90
44305;DHT22;30019;50.576;8.568;2023-03-23T15:42:21;14.80;99.90
44305;DHT22;30019;50.576;8.568;2023-03-23T15:50:19;14.80;99.90
44305;DHT22;30019;50.576;8.568;2023-03-23T15:52:46;14.90;99.90
44305;DHT22;30019;50.576;8.568;2023-03-23T15:55:42;14.80;99.90
44305;DHT22;30019;50.576;8.568;2023-03-23T15:58:28;14.80;99.90
44305;DHT22;30019;50.576;8.568;2023-03-23T16:00:54;14.70;99.90
44305;DHT22;30019;50.576;8.568;2023-03-23T16:03:38;14.60;99.90
44305;DHT22;30019;50.576;8.568;2023-03-23T16:06:29;14.60;99.90
44305;DHT22;30019;50.576;8.568;2023-03-23T16:09:04;14.50;99.90
44305;DHT22;30019;50.576;8.568;2023-03-23T16:11:48;14.60;99.90
44305;DHT22;30019;50.576;8.568;2023-03-23T16:14:34;14.60;99.90
44305;DHT22;30019;50.576;8.568;2023-03-23T16:17:03;14.60;99.90
44305;DHT22;30019;50.576;8.568;2023-03-23T16:19:31;14.60;99.90
44305;DHT22;30019;50.576;8.568;2023-03-23T16:22:03;14.50;99.90
44305;DHT22;30019;50.576;8.568;2023-03-23T16:24:28;14.40;99.90
44305;DHT22;30019;50.576;8.568;2023-03-23T16:26:54;14.40;99.90
44305;DHT22;30019;50.576;8.568;2023-03-23T16:29:20;14.40;99.90
44305;DHT22;30019;50.576;8.568;2023-03-23T16:31:46;14.40;99.90
44305;DHT22;30019;50.576;8.568;2023-03-23T16:34:22;14.30;99.90
44305;DHT22;30019;50.576;8.568;2023-03-23T16:36:48;14.20;99.90
44305;DHT22;30019;50.576;8.568;2023-03-23T16:39:14;14.20;99.90
44305;DHT22;30019;50.576;8.568;2023-03-23T16:41:43;14.20;99.90
44305;DHT22;30019;50.576;8.568;2023-03-23T16:44:16;14.20;99.90
44305;DHT22;30019;50.576;8.568;2023-03-23T16:46:49;14.10;99.90
44305;DHT22;30019;50.576;8.568;2023-03-23T16:49:15;14.10;99.90
44305;DHT22;30019;50.576;8.568;2023-03-23T16:51:41;14.10;99.90
44305;DHT22;30019;50.576;8.568;2023-03-23T16:54:06;14.00;99.90
44305;DHT22;30019;50.576;8.568;2023-03-23T16:56:45;14.00;99.90
44305;DHT22;30019;50.576;8.568;2023-03-23T17:03:00;13.90;99.90
44305;DHT22;30019;50.576;8.568;2023-03-23T17:05:42;13.90;99.90
44305;DHT22;30019;50.576;8.568;2023-03-23T17:08:11;13.80;99.90
44305;DHT22;30019;50.576;8.568;2023-03-23T17:10:46;13.80;99.90
44305;DHT22;30019;50.576;8.568;2023-03-23T17:13:13;13.70;99.90
44305;DHT22;30019;50.576;8.568;2023-03-23T17:15:40;13.70;99.90
44305;DHT22;30019;50.576;8.568;2023-03-23T17:18:07;13.60;99.90
44305;DHT22;30019;50.576;8.568;2023-03-23T17:20:33;13.70;99.90
44305;DHT22;30019;50.576;8.568;2023-03-23T17:22:59;13.70;99.90
44305;DHT22;30019;50.576;8.568;2023-03-23T17:25:25;13.50;99.90
44305;DHT22;30019;50.576;8.568;2023-03-23T17:27:51;13.40;99.90
44305;DHT22;30019;50.576;8.568;2023-03-23T17:30:20;13.30;99.90
44305;DHT22;30019;50.576;8.568;2023-03-23T17:32:46;13.30;99.90
44305;DHT22;30019;50.576;8.568;2023-03-23T17:35:13;13.30;99.90
44305;DHT22;30019;50.576;8.568;2023-03-23T17:37:39;13.20;99.90
44305;DHT22;30019;50.576;8.568;2023-03-23T17:40:06;13.20;99.90
44305;DHT22;30019;50.576;8.568;2023-03-23T17:42:35;13.10;99.90
44305;DHT22;30019;50.576;8.568;2023-03-23T17:45:01;13.00;99.90
44305;DHT22;30019;50.576;8.568;2023-03-23T17:47:28;13.00;99.90
44305;DHT22;30019;50.576;8.568;2023-03-23T17:49:53;13.00;99.90
44305;DHT22;30019;50.576;8.568;2023-03-23T17:52:19;12.90;99.90
44305;DHT22;30019;50.576;8.568;2023-03-23T17:54:44;12.90;99.90
44305;DHT22;30019;50.576;8.568;2023-03-23T17:57:10;12.80;99.90
44305;DHT22;30019;50.576;8.568;2023-03-23T17:59:36;12.80;99.90
44305;DHT22;30019;50.576;8.568;2023-03-23T18:02:01;12.70;99.90
44305;DHT22;30019;50.576;8.568;2023-03-23T18:04:27;12.70;99.90
44305;DHT22;30019;50.576;8.568;2023-03-23T18:06:56;12.70;99.90
44305;DHT22;30019;50.576;8.568;2023-03-23T18:09:23;12.70;99.90
44305;DHT22;30019;50.576;8.568;2023-03-23T18:11:49;12.70;99.90
44305;DHT22;30019;50.576;8.568;2023-03-23T18:17:38;12.60;99.90
44305;DHT22;30019;50.576;8.568;2023-03-23T18:20:05;12.60;99.90
44305;DHT22;30019;50.576;8.568;2023-03-23T18:22:31;12.60;99.90
44305;DHT22;30019;50.576;8.568;2023-03-23T18:24:56;12.60;99.90
44305;DHT22;30019;50.576;8.568;2023-03-23T18:27:22;12.70;99.90
44305;DHT22;30019;50.576;8.568;2023-03-23T18:29:48;12.70;99.90
44305;DHT22;30019;50.576;8.568;2023-03-23T18:32:14;12.70;99.90
44305;DHT22;30019;50.576;8.568;2023-03-23T18:34:41;12.80;99.90
44305;DHT22;30019;50.576;8.568;2023-03-23T18:37:10;12.80;99.90
44305;DHT22;30019;50.576;8.568;2023-03-23T18:39:35;12.70;99.90
44305;DHT22;30019;50.576;8.568;2023-03-23T18:42:03;12.70;99.90
44305;DHT22;30019;50.576;8.568;2023-03-23T18:44:28;12.70;99.90
44305;DHT22;30019;50.576;8.568;2023-03-23T18:46:54;12.70;99.90
44305;DHT22;30019;50.576;8.568;2023-03-23T18:49:20;12.70;99.90
44305;DHT22;30019;50.576;8.568;2023-03-23T18:51:46;12.70;99.90
44305;DHT22;30019;50.576;8.568;2023-03-23T18:54:12;12.70;99.90
44305;DHT22;30019;50.576;8.568;2023-03-23T18:56:38;12.60;99.90
44305;DHT22;30019;50.576;8.568;2023-03-23T18:59:04;12.60;99.90
44305;DHT22;30019;50.576;8.568;2023-03-23T19:01:30;12.60;99.90
44305;DHT22;30019;50.576;8.568;2023-03-23T19:03:56;12.60;99.90
44305;DHT22;30019;50.576;8.568;2023-03-23T19:06:24;12.60;99.90
44305;DHT22;30019;50.576;8.568;2023-03-23T19:08:51;12.60;99.90
44305;DHT22;30019;50.576;8.568;2023-03-23T19:11:28;12.60;99.90
44305;DHT22;30019;50.576;8.568;2023-03-23T19:13:55;12.60;99.90
44305;DHT22;30019;50.576;8.568;2023-03-23T19:16:21;12.60;99.90
44305;DHT22;30019;50.576;8.568;2023-03-23T19:18:47;12.60;99.90
44305;DHT22;30019;50.576;8.568;2023-03-23T19:21:12;12.60;99.90
44305;DHT22;30019;50.576;8.568;2023-03-23T19:23:38;12.50;99.90
44305;DHT22;30019;50.576;8.568;2023-03-23T19:26:04;12.50;99.90
44305;DHT22;30019;50.576;8.568;2023-03-23T19:28:29;12.60;99.90
44305;DHT22;30019;50.576;8.568;2023-03-23T19:30:57;12.50;99.90
44305;DHT22;30019;50.576;8.568;2023-03-23T19:33:23;12.50;99.90
44305;DHT22;30019;50.576;8.568;2023-03-23T19:35:51;12.50;99.90
44305;DHT22;30019;50.576;8.568;2023-03-23T19:38:18;12.50;99.90
44305;DHT22;30019;50.576;8.568;2023-03-23T19:40:53;12.60;99.90
44305;DHT22;30019;50.576;8.568;2023-03-23T19:43:19;12.60;99.90
44305;DHT22;30019;50.576;8.568;2023-03-23T19:45:45;12.60;99.90
44305;DHT22;30019;50.576;8.568;2023-03-23T19:48:11;12.60;99.90
44305;DHT22;30019;50.576;8.568;2023-03-23T19:50:36;12.50;99.90
44305;DHT22;30019;50.576;8.568;2023-03-23T19:53:04;12.50;99.90
44305;DHT22;30019;50.576;8.568;2023-03-23T19:55:29;12.50;99.90
44305;DHT22;30019;50.576;8.568;2023-03-23T19:57:55;12.50;99.90
44305;DHT22;30019;50.576;8.568;2023-03-23T20:00:20;12.40;99.90
44305;DHT22;30019;50.576;8.568;2023-03-23T20:02:46;12.40;99.90
44305;DHT22;30019;50.576;8.568;2023-03-23T20:05:11;12.30;99.90
44305;DHT22;30019;50.576;8.568;2023-03-23T20:07:37;12.30;99.90
44305;DHT22;30019;50.576;8.568;2023-03-23T20:10:03;12.20;99.90
44305;DHT22;30019;50.576;8.568;2023-03-23T20:12:29;12.20;99.90
44305;DHT22;30019;50.576;8.568;2023-03-23T20:14:54;12.20;99.90
44305;DHT22;30019;50.576;8.568;2023-03-23T20:17:20;12.20;99.90
44305;DHT22;30019;50.576;8.568;2023-03-23T20:19:45;12.10;99.90
44305;DHT22;30019;50.576;8.568;2023-03-23T20:22:11;12.10;99.90
44305;DHT22;30019;50.576;8.568;2023-03-23T20:24:38;12.10;99.90
44305;DHT22;30019;50.576;8.568;2023-03-23T20:27:04;12.00;99.90
44305;DHT22;30019;50.576;8.568;2023-03-23T20:29:30;12.00;99.90
44305;DHT22;30019;50.576;8.568;2023-03-23T20:31:57;12.00;99.90
44305;DHT22;30019;50.576;8.568;2023-03-23T20:34:22;11.90;99.90
44305;DHT22;30019;50.576;8.568;2023-03-23T20:36:56;12.00;99.90
44305;DHT22;30019;50.576;8.568;2023-03-23T20:39:23;12.00;99.90
44305;DHT22;30019;50.576;8.568;2023-03-23T20:41:51;12.00;99.90
44305;DHT22;30019;50.576;8.568;2023-03-23T20:44:20;12.10;99.90
44305;DHT22;30019;50.576;8.568;2023-03-23T20:46:49;12.20;99.90
44305;DHT22;30019;50.576;8.568;2023-03-23T20:49:16;12.20;99.90
44305;DHT22;30019;50.576;8.568;2023-03-23T20:51:43;12.20;99.90
44305;DHT22;30019;50.576;8.568;2023-03-23T20:54:09;12.20;99.90
44305;DHT22;30019;50.576;8.568;2023-03-23T20:56:35;12.30;99.90
44305;DHT22;30019;50.576;8.568;2023-03-23T20:59:02;12.30;99.90
44305;DHT22;30019;50.576;8.568;2023-03-23T21:01:28;12.30;99.90
44305;DHT22;30019;50.576;8.568;2023-03-23T21:03:53;12.30;99.90
44305;DHT22;30019;50.576;8.568;2023-03-23T21:06:21;12.40;99.90
44305;DHT22;30019;50.576;8.568;2023-03-23T21:08:47;12.40;99.90
44305;DHT22;30019;50.576;8.568;2023-03-23T21:11:17;12.50;99.90
44305;DHT22;30019;50.576;8.568;2023-03-23T21:13:44;12.50;99.90
44305;DHT22;30019;50.576;8.568;2023-03-23T21:16:09;12.60;99.90
44305;DHT22;30019;50.576;8.568;2023-03-23T21:18:35;12.70;99.90
44305;DHT22;30019;50.576;8.568;2023-03-23T21:21:01;12.70;99.90
44305;DHT22;30019;50.576;8.568;2023-03-23T21:23:28;12.70;99.90
44305;DHT22;30019;50.576;8.568;2023-03-23T21:26:01;12.70;99.90
44305;DHT22;30019;50.576;8.568;2023-03-23T21:28:27;12.70;99.90
44305;DHT22;30019;50.576;8.568;2023-03-23T21:30:53;12.70;99.90
44305;DHT22;30019;50.576;8.568;2023-03-23T21:33:19;12.70;99.90
44305;DHT22;30019;50.576;8.568;2023-03-23T21:35:45;12.80;99.90
44305;DHT22;30019;50.576;8.568;2023-03-23T21:38:12;12.80;99.90
44305;DHT22;30019;50.576;8.568;2023-03-23T21:40:44;12.90;99.90
44305;DHT22;30019;50.576;8.568;2023-03-23T21:43:10;12.90;99.90
44305;DHT22;30019;50.576;8.568;2023-03-23T21:45:43;12.90;99.90
44305;DHT22;30019;50.576;8.568;2023-03-23T21:48:10;12.90;99.90
44305;DHT22;30019;50.576;8.568;2023-03-23T21:50:38;13.00;99.90
44305;DHT22;30019;50.576;8.568;2023-03-23T21:53:07;13.00;99.90
44305;DHT22;30019;50.576;8.568;2023-03-23T21:55:34;12.90;99.90
44305;DHT22;30019;50.576;8.568;2023-03-23T21:58:02;12.90;99.90
44305;DHT22;30019;50.576;8.568;2023-03-23T22:00:30;12.80;99.90
44305;DHT22;30019;50.576;8.568;2023-03-23T22:02:55;12.70;99.90
44305;DHT22;30019;50.576;8.568;2023-03-23T22:05:21;12.60;99.90
44305;DHT22;30019;50.576;8.568;2023-03-23T22:07:47;12.50;99.90
44305;DHT22;30019;50.576;8.568;2023-03-23T22:10:13;12.50;99.90
44305;DHT22;30019;50.576;8.568;2023-03-23T22:12:39;12.50;99.90
44305;DHT22;30019;50.576;8.568;2023-03-23T22:15:07;12.40;99.90
44305;DHT22;30019;50.576;8.568;2023-03-23T22:17:36;12.40;99.90
44305;DHT22;30019;50.576;8.568;2023-03-23T22:20:04;12.30;99.90
44305;DHT22;30019;50.576;8.568;2023-03-23T22:22:31;12.40;99.90
44305;DHT22;30019;50.576;8.568;2023-03-23T22:24:56;12.30;99.90
44305;DHT22;30019;50.576;8.568;2023-03-23T22:27:22;12.30;99.90
44305;DHT22;30019;50.576;8.568;2023-03-23T22:29:48;12.30;99.90
44305;DHT22;30019;50.576;8.568;2023-03-23T22:32:13;12.30;99.90
44305;DHT22;30019;50.576;8.568;2023-03-23T22:34:39;12.30;99.90
44305;DHT22;30019;50.576;8.568;2023-03-23T22:37:05;12.30;99.90
44305;DHT22;30019;50.576;8.568;2023-03-23T22:39:30;12.30;99.90
44305;DHT22;30019;50.576;8.568;2023-03-23T22:41:56;12.30;99.90
44305;DHT22;30019;50.576;8.568;2023-03-23T22:44:22;12.30;99.90
44305;DHT22;30019;50.576;8.568;2023-03-23T22:46:47;12.20;99.90
44305;DHT22;30019;50.576;8.568;2023-03-23T22:49:13;12.20;99.90
44305;DHT22;30019;50.576;8.568;2023-03-23T22:51:39;12.30;99.90
44305;DHT22;30019;50.576;8.568;2023-03-23T22:54:05;12.20;99.90
44305;DHT22;30019;50.576;8.568;2023-03-23T22:56:31;12.30;99.90
44305;DHT22;30019;50.576;8.568;2023-03-23T22:58:57;12.20;99.90
44305;DHT22;30019;50.576;8.568;2023-03-23T23:01:25;12.20;99.90
44305;DHT22;30019;50.576;8.568;2023-03-23T23:03:51;12.20;99.90
44305;DHT22;30019;50.576;8.568;2023-03-23T23:06:17;12.20;99.90
44305;DHT22;30019;50.576;8.568;2023-03-23T23:08:46;12.20;99.90
44305;DHT22;30019;50.576;8.568;2023-03-23T23:11:17;12.20;99.90
44305;DHT22;30019;50.576;8.568;2023-03-23T23:13:43;12.30;99.90
44305;DHT22;30019;50.576;8.568;2023-03-23T23:16:10;12.20;99.90
44305;DHT22;30019;50.576;8.568;2023-03-23T23:18:36;12.30;99.90
44305;DHT22;30019;50.576;8.568;2023-03-23T23:21:08;12.10;99.90
44305;DHT22;30019;50.576;8.568;2023-03-23T23:23:35;12.10;99.90
44305;DHT22;30019;50.576;8.568;2023-03-23T23:26:01;12.00;99.90
44305;DHT22;30019;50.576;8.568;2023-03-23T23:28:27;12.00;99.90
44305;DHT22;30019;50.576;8.568;2023-03-23T23:30:53;12.00;99.90
44305;DHT22;30019;50.576;8.568;2023-03-23T23:33:19;11.90;99.90
44305;DHT22;30019;50.576;8.568;2023-03-23T23:35:45;11.90;99.90
44305;DHT22;30019;50.576;8.568;2023-03-23T23:38:12;11.80;99.90